createdAt,value
2019-01-23T00:01:23.233Z,37.23
2019-01-23T00:03:52.447Z,36.60
2019-01-23T00:06:21.709Z,35.83
2019-01-23T00:08:50.869Z,36.10
2019-01-23T00:11:20.116Z,34.77
2019-01-23T00:13:49.310Z,33.00
2019-01-23T00:16:18.518Z,33.83
2019-01-23T00:18:47.752Z,34.03
2019-01-23T00:21:16.902Z,35.53
2019-01-23T00:23:46.041Z,32.63
2019-01-23T00:26:15.189Z,33.57
2019-01-23T00:28:44.345Z,33.13
2019-01-23T00:31:13.488Z,32.50
2019-01-23T00:33:42.597Z,34.30
2019-01-23T00:36:11.850Z,35.30
2019-01-23T00:38:40.969Z,33.47
2019-01-23T00:41:10.077Z,33.67
2019-01-23T00:43:39.263Z,34.37
2019-01-23T00:46:08.429Z,34.57
2019-01-23T00:48:37.642Z,33.57
2019-01-23T00:51:06.805Z,30.77
2019-01-23T00:53:36.049Z,34.73
2019-01-23T00:56:05.298Z,35.03
2019-01-23T00:58:34.457Z,33.33
2019-01-23T01:01:04.436Z,34.57
2019-01-23T01:03:33.587Z,32.47
2019-01-23T01:06:02.853Z,32.93
2019-01-23T01:08:31.968Z,33.83
2019-01-23T01:11:01.144Z,32.83
2019-01-23T01:13:30.267Z,33.13
2019-01-23T01:15:59.480Z,30.87
2019-01-23T01:18:28.737Z,30.10
2019-01-23T01:20:57.861Z,32.10
2019-01-23T01:23:27.005Z,31.03
2019-01-23T01:25:56.157Z,29.87
2019-01-23T01:28:25.409Z,31.30
2019-01-23T01:30:54.661Z,30.77
2019-01-23T01:33:23.859Z,31.13
2019-01-23T01:35:52.972Z,28.57
2019-01-23T01:38:22.125Z,30.43
2019-01-23T01:40:51.248Z,30.20
2019-01-23T01:43:20.367Z,29.87
2019-01-23T01:45:49.613Z,28.77
2019-01-23T01:48:18.737Z,26.87
2019-01-23T01:50:47.860Z,28.33
2019-01-23T01:53:17.024Z,26.00
2019-01-23T01:55:46.163Z,27.37
2019-01-23T01:58:15.314Z,29.03
2019-01-23T02:00:44.460Z,26.43
2019-01-23T02:03:15.427Z,26.63
2019-01-23T02:05:44.429Z,27.50
2019-01-23T02:08:13.617Z,28.57
2019-01-23T02:10:42.737Z,26.87
2019-01-23T02:13:11.873Z,28.03
2019-01-23T02:15:41.045Z,26.67
2019-01-23T02:18:10.157Z,27.30
2019-01-23T02:20:39.264Z,27.07
2019-01-23T02:23:08.452Z,26.73
2019-01-23T02:25:37.657Z,27.00
2019-01-23T02:28:06.803Z,26.27
2019-01-23T02:30:36.045Z,27.33
2019-01-23T02:33:05.665Z,26.87
2019-01-23T02:35:34.833Z,27.07
2019-01-23T02:38:04.098Z,27.63
2019-01-23T02:40:33.325Z,27.00
2019-01-23T02:43:02.452Z,28.50
2019-01-23T02:45:31.609Z,28.50
2019-01-23T02:48:00.822Z,26.23
2019-01-23T02:50:29.996Z,27.03
2019-01-23T02:52:59.158Z,25.43
2019-01-23T02:55:28.334Z,24.77
2019-01-23T02:57:57.456Z,24.40
2019-01-23T03:00:26.570Z,25.23
2019-01-23T03:02:55.710Z,24.80
2019-01-23T03:05:24.953Z,24.23
2019-01-23T03:07:54.178Z,24.77
2019-01-23T03:10:23.489Z,25.20
2019-01-23T03:12:52.675Z,23.90
2019-01-23T03:15:21.797Z,26.13
2019-01-23T03:17:50.948Z,25.23
2019-01-23T03:20:20.926Z,23.70
2019-01-23T03:22:50.083Z,23.53
2019-01-23T03:25:19.297Z,24.53
2019-01-23T03:27:48.540Z,24.33
2019-01-23T03:30:22.728Z,24.27
2019-01-23T03:32:51.881Z,24.87
2019-01-23T03:35:20.992Z,24.73
2019-01-23T03:37:50.209Z,24.20
2019-01-23T03:40:21.270Z,23.27
2019-01-23T03:42:50.735Z,23.63
2019-01-23T03:45:19.982Z,24.53
2019-01-23T03:47:49.131Z,25.50
2019-01-23T03:50:19.429Z,22.17
2019-01-23T03:52:48.814Z,23.20
2019-01-23T03:55:18.865Z,22.30
2019-01-23T03:57:48.028Z,21.23
2019-01-23T04:00:19.066Z,22.97
2019-01-23T04:02:49.094Z,23.90
2019-01-23T04:05:18.318Z,23.93
2019-01-23T04:07:47.432Z,22.53
2019-01-23T04:10:17.589Z,21.97
2019-01-23T04:12:46.720Z,21.43
2019-01-23T04:15:16.630Z,20.30
2019-01-23T04:17:46.035Z,21.00
2019-01-23T04:20:17.586Z,20.27
2019-01-23T04:22:46.697Z,19.53
2019-01-23T04:25:16.032Z,20.87
2019-01-23T04:27:45.171Z,20.10
2019-01-23T04:30:22.477Z,19.17
2019-01-23T04:32:51.739Z,18.40
2019-01-23T04:35:20.979Z,17.33
2019-01-23T04:37:50.082Z,18.40
2019-01-23T04:40:19.251Z,17.97
2019-01-23T04:42:48.453Z,17.70
2019-01-23T04:45:17.665Z,16.47
2019-01-23T04:47:46.889Z,17.47
2019-01-23T04:50:16.622Z,16.93
2019-01-23T04:53:14.231Z,16.83
2019-01-23T04:55:43.455Z,16.50
2019-01-23T04:58:12.573Z,17.60
2019-01-23T05:00:41.757Z,17.37
2019-01-23T05:03:10.952Z,16.60
2019-01-23T05:05:40.124Z,16.63
2019-01-23T05:08:09.306Z,16.93
2019-01-23T05:10:38.486Z,17.23
2019-01-23T05:13:07.605Z,15.83
2019-01-23T05:15:36.716Z,17.13
2019-01-23T05:18:05.846Z,15.40
2019-01-23T05:20:35.010Z,18.37
2019-01-23T05:23:04.114Z,18.13
2019-01-23T05:25:33.251Z,18.67
2019-01-23T05:28:02.451Z,19.03
2019-01-23T05:30:31.585Z,18.97
2019-01-23T05:33:00.742Z,19.00
2019-01-23T05:35:29.950Z,16.97
2019-01-23T05:37:59.065Z,19.00
2019-01-23T05:40:28.199Z,17.17
2019-01-23T05:42:57.323Z,18.10
2019-01-23T05:45:26.441Z,21.17
2019-01-23T05:47:55.634Z,19.00
2019-01-23T05:50:24.832Z,20.10
2019-01-23T05:52:54.860Z,20.87
2019-01-23T05:55:24.083Z,20.93
2019-01-23T05:57:53.230Z,19.93
2019-01-23T06:00:23.149Z,19.67
2019-01-23T06:02:52.456Z,19.40
2019-01-23T06:05:21.770Z,19.03
2019-01-23T06:07:50.971Z,18.67
2019-01-23T06:10:20.088Z,20.10
2019-01-23T06:12:49.260Z,19.93
2019-01-23T06:15:18.421Z,19.07
2019-01-23T06:17:47.536Z,18.10
2019-01-23T06:20:18.980Z,20.00
2019-01-23T06:22:48.166Z,21.03
2019-01-23T06:25:17.304Z,21.33
2019-01-23T06:27:46.502Z,19.90
2019-01-23T06:30:20.998Z,20.13
2019-01-23T06:32:50.097Z,22.00
2019-01-23T06:35:19.353Z,21.33
2019-01-23T06:37:48.518Z,22.40
2019-01-23T06:40:18.440Z,22.87
2019-01-23T06:42:47.597Z,22.77
2019-01-23T06:45:17.736Z,21.80
2019-01-23T06:47:47.645Z,20.67
2019-01-23T06:50:18.480Z,21.83
2019-01-23T06:52:47.761Z,20.53
2019-01-23T06:55:21.978Z,20.30
2019-01-23T06:57:52.000Z,21.20
2019-01-23T07:00:25.867Z,18.17
2019-01-23T07:02:55.064Z,18.80
2019-01-23T07:05:24.591Z,19.33
2019-01-23T07:07:53.721Z,19.17
2019-01-23T07:10:24.476Z,20.80
2019-01-23T07:12:53.692Z,19.37
2019-01-23T07:15:22.912Z,20.13
2019-01-23T07:17:52.069Z,18.83
2019-01-23T07:20:23.445Z,19.20
2019-01-23T07:22:52.689Z,21.63
2019-01-23T07:25:22.084Z,21.83
2019-01-23T07:27:51.510Z,23.33
2019-01-23T07:30:32.517Z,21.33
2019-01-23T07:33:01.678Z,21.03
2019-01-23T07:35:30.833Z,23.03
2019-01-23T07:38:00.078Z,22.90
2019-01-23T07:40:29.284Z,22.77
2019-01-23T07:42:58.513Z,21.47
2019-01-23T07:45:27.921Z,21.40
2019-01-23T07:47:57.045Z,21.17
2019-01-23T07:50:26.153Z,22.00
2019-01-23T07:52:55.666Z,21.30
2019-01-23T07:55:24.844Z,22.70
2019-01-23T07:57:53.969Z,22.83
2019-01-23T08:00:24.089Z,25.17
2019-01-23T08:02:53.281Z,23.97
2019-01-23T08:05:23.909Z,24.13
2019-01-23T08:07:53.480Z,23.10
2019-01-23T08:10:23.177Z,22.00
2019-01-23T08:12:52.405Z,22.63
2019-01-23T08:15:26.926Z,23.13
2019-01-23T08:17:56.269Z,22.33
2019-01-23T08:20:25.877Z,21.53
2019-01-23T08:22:55.097Z,21.23
2019-01-23T08:25:24.476Z,22.07
2019-01-23T08:27:54.049Z,19.13
2019-01-23T08:30:23.905Z,21.13
2019-01-23T08:32:53.083Z,20.73
2019-01-23T08:35:22.928Z,21.13
2019-01-23T08:37:52.212Z,20.50
2019-01-23T08:40:21.695Z,20.50
2019-01-23T08:42:50.801Z,19.40
2019-01-23T08:45:20.453Z,19.13
2019-01-23T08:47:49.681Z,18.10
2019-01-23T08:50:24.617Z,18.73
2019-01-23T08:52:53.836Z,20.30
2019-01-23T08:55:23.109Z,19.17
2019-01-23T08:57:52.390Z,17.70
2019-01-23T09:00:21.749Z,18.73
2019-01-23T09:02:50.953Z,17.77
2019-01-23T09:05:20.126Z,19.50
2019-01-23T09:07:49.229Z,19.40
2019-01-23T09:10:20.141Z,19.73
2019-01-23T09:12:49.282Z,20.03
2019-01-23T09:15:18.392Z,19.80
2019-01-23T09:17:47.514Z,18.90
2019-01-23T09:20:17.473Z,19.27
2019-01-23T09:22:46.705Z,19.37
2019-01-23T09:25:17.713Z,21.17
2019-01-23T09:27:46.829Z,20.23
2019-01-23T09:30:19.461Z,20.53
2019-01-23T09:33:19.717Z,20.63
2019-01-23T09:36:11.235Z,21.03
2019-01-23T09:38:53.589Z,23.00
2019-01-23T09:42:09.941Z,24.80
2019-01-23T09:45:41.669Z,23.03
2019-01-23T09:48:52.505Z,22.40
2019-01-23T09:51:58.270Z,23.37
2019-01-23T09:54:27.405Z,24.40
2019-01-23T09:56:56.637Z,26.67
2019-01-23T09:59:25.774Z,26.70
2019-01-23T10:01:54.931Z,28.27
2019-01-23T10:04:24.173Z,24.70
2019-01-23T10:06:53.456Z,27.83
2019-01-23T10:09:22.649Z,28.53
2019-01-23T10:11:51.762Z,31.63
2019-01-23T10:14:20.877Z,31.13
2019-01-23T10:16:50.037Z,27.03
2019-01-23T10:19:19.192Z,26.20
2019-01-23T10:21:48.402Z,26.57
2019-01-23T10:24:17.645Z,27.97
2019-01-23T10:26:46.789Z,29.30
2019-01-23T10:29:15.922Z,27.27
2019-01-23T10:31:45.025Z,22.87
2019-01-23T10:34:14.161Z,21.27
2019-01-23T10:36:43.521Z,23.27
2019-01-23T10:39:14.489Z,24.07
2019-01-23T10:41:45.202Z,21.13
2019-01-23T10:44:17.409Z,18.70
2019-01-23T10:46:49.492Z,20.53
2019-01-23T10:49:20.548Z,19.10
2019-01-23T10:51:50.894Z,22.37
2019-01-23T10:54:22.705Z,20.90
2019-01-23T10:56:52.694Z,22.47
2019-01-23T10:59:21.958Z,23.63
2019-01-23T11:01:52.429Z,27.63
2019-01-23T11:04:23.540Z,30.97
2019-01-23T11:06:53.540Z,28.67
2019-01-23T11:09:23.889Z,27.33
2019-01-23T11:11:53.183Z,25.83
2019-01-23T11:14:22.293Z,22.20
2019-01-23T11:16:51.570Z,22.00
2019-01-23T11:19:20.753Z,20.73
2019-01-23T11:21:49.897Z,21.90
2019-01-23T11:24:19.029Z,21.53
2019-01-23T11:26:48.340Z,22.20
2019-01-23T11:29:17.487Z,23.00
2019-01-23T11:31:46.629Z,22.40
2019-01-23T11:34:19.058Z,22.77
2019-01-23T11:36:50.727Z,21.57
2019-01-23T11:39:20.628Z,21.30
2019-01-23T11:41:51.595Z,20.90
2019-01-23T11:44:20.770Z,23.63
2019-01-23T11:46:49.893Z,21.17
2019-01-23T11:49:19.041Z,19.47
2019-01-23T11:51:48.225Z,19.80
2019-01-23T11:54:17.419Z,19.80
2019-01-23T11:56:46.824Z,19.07
2019-01-23T11:59:15.993Z,22.17
2019-01-23T12:01:45.118Z,24.13
2019-01-23T12:04:14.231Z,24.50
2019-01-23T12:06:43.365Z,24.80
2019-01-23T12:09:12.495Z,25.00
2019-01-23T12:11:41.715Z,24.53
2019-01-23T12:14:11.023Z,24.80
2019-01-23T12:16:40.233Z,21.30
2019-01-23T12:19:09.901Z,22.80
2019-01-23T12:21:39.379Z,28.30
2019-01-23T12:24:08.608Z,28.20
2019-01-23T12:26:37.739Z,29.90
2019-01-23T12:29:06.904Z,33.33
2019-01-23T12:31:36.133Z,32.13
2019-01-23T12:34:05.477Z,32.47
2019-01-23T12:36:34.637Z,31.00
2019-01-23T12:39:05.489Z,32.07
2019-01-23T12:41:34.611Z,30.87
2019-01-23T12:44:03.974Z,28.13
2019-01-23T12:46:33.201Z,22.07
2019-01-23T12:49:02.369Z,20.60
2019-01-23T12:51:31.483Z,21.30
2019-01-23T12:54:00.665Z,23.87
2019-01-23T12:56:29.800Z,23.83
2019-01-23T12:58:58.938Z,22.23
2019-01-23T13:01:28.289Z,22.17
2019-01-23T13:03:57.466Z,23.80
2019-01-23T13:06:26.668Z,32.07
2019-01-23T13:08:55.867Z,33.47
2019-01-23T13:11:25.149Z,32.87
2019-01-23T13:13:54.437Z,31.37
2019-01-23T13:16:23.657Z,31.00
2019-01-23T13:18:53.030Z,33.80
2019-01-23T13:21:22.177Z,32.60
2019-01-23T13:23:51.286Z,29.40
2019-01-23T13:26:20.418Z,29.63
2019-01-23T13:28:49.590Z,28.47
2019-01-23T13:31:18.696Z,30.90
2019-01-23T13:33:47.837Z,29.87
2019-01-23T13:36:17.036Z,24.97
2019-01-23T13:38:46.153Z,23.30
2019-01-23T13:41:15.513Z,24.70
2019-01-23T13:43:44.752Z,25.70
2019-01-23T13:46:13.877Z,27.27
2019-01-23T13:48:43.108Z,28.50
2019-01-23T13:51:12.249Z,30.20
2019-01-23T13:53:41.530Z,33.17
2019-01-23T13:56:10.641Z,32.23
2019-01-23T13:58:41.968Z,35.50
2019-01-23T14:01:22.889Z,35.73
2019-01-23T14:03:52.046Z,31.33
2019-01-23T14:06:21.276Z,33.63
2019-01-23T14:08:50.635Z,40.03
2019-01-23T14:11:19.908Z,37.53
2019-01-23T14:13:49.133Z,33.87
2019-01-23T14:16:18.453Z,33.23
2019-01-23T14:18:47.653Z,29.67
2019-01-23T14:21:16.805Z,27.93
2019-01-23T14:23:46.213Z,27.10
2019-01-23T14:26:15.537Z,28.63
2019-01-23T14:28:44.697Z,28.73
2019-01-23T14:31:13.907Z,26.83
2019-01-23T14:33:43.164Z,26.47
2019-01-23T14:36:12.363Z,26.13
2019-01-23T14:38:41.525Z,25.00
2019-01-23T14:41:10.658Z,23.60
2019-01-23T14:43:39.953Z,24.07
2019-01-23T14:46:09.104Z,24.37
2019-01-23T14:48:38.309Z,22.83
2019-01-23T14:51:07.473Z,21.43
2019-01-23T14:53:36.667Z,21.43
2019-01-23T14:56:05.817Z,22.07
2019-01-23T14:58:34.997Z,22.30
2019-01-23T15:01:04.210Z,21.70
2019-01-23T15:03:33.565Z,23.20
2019-01-23T15:06:02.833Z,20.60
2019-01-23T15:08:32.017Z,22.20
2019-01-23T15:11:01.163Z,22.93
2019-01-23T15:13:30.314Z,24.03
2019-01-23T15:15:59.517Z,28.27
2019-01-23T15:18:28.663Z,28.50
2019-01-23T15:20:57.846Z,23.33
2019-01-23T15:23:27.085Z,27.13
2019-01-23T15:25:56.429Z,23.93
2019-01-23T15:28:25.677Z,25.20
2019-01-23T15:30:54.827Z,26.57
2019-01-23T15:33:23.941Z,28.87
2019-01-23T15:35:53.163Z,27.10
2019-01-23T15:38:22.288Z,30.30
2019-01-23T15:40:51.572Z,29.60
2019-01-23T15:43:20.706Z,32.93
2019-01-23T15:45:49.842Z,34.43
2019-01-23T15:48:19.042Z,30.97
2019-01-23T15:50:48.361Z,31.70
2019-01-23T15:53:19.755Z,31.70
2019-01-23T15:55:49.075Z,31.90
2019-01-23T15:58:18.333Z,31.17
2019-01-23T16:00:47.519Z,29.63
2019-01-23T16:03:16.789Z,29.23
2019-01-23T16:05:45.957Z,30.20
2019-01-23T16:08:15.380Z,26.93
2019-01-23T16:10:44.662Z,33.53
2019-01-23T16:13:13.809Z,31.00
2019-01-23T16:15:43.265Z,30.20
2019-01-23T16:18:12.466Z,26.53
2019-01-23T16:20:41.608Z,30.40
2019-01-23T16:23:10.891Z,29.63
2019-01-23T16:25:40.035Z,29.13
2019-01-23T16:28:09.201Z,28.87
2019-01-23T16:30:39.870Z,30.83
2019-01-23T16:33:09.195Z,31.97
2019-01-23T16:35:39.055Z,34.30
2019-01-23T16:38:10.367Z,32.67
2019-01-23T16:40:39.629Z,34.50
2019-01-23T16:43:08.784Z,36.87
2019-01-23T16:45:38.192Z,30.63
2019-01-23T16:48:07.387Z,30.87
2019-01-23T16:50:36.717Z,32.37
2019-01-23T16:53:06.642Z,36.63
2019-01-23T16:55:35.906Z,39.90
2019-01-23T16:58:06.602Z,36.50
2019-01-23T17:00:36.045Z,33.47
2019-01-23T17:03:05.617Z,32.57
2019-01-23T17:05:35.118Z,35.30
2019-01-23T17:08:06.630Z,30.80
2019-01-23T17:10:35.887Z,30.70
2019-01-23T17:13:05.394Z,28.47
2019-01-23T17:15:35.050Z,27.73
2019-01-23T17:18:04.423Z,26.13
2019-01-23T17:20:39.665Z,21.87
2019-01-23T17:23:08.982Z,24.53
2019-01-23T17:25:38.107Z,23.80
2019-01-23T17:28:08.500Z,20.27
2019-01-23T17:30:38.019Z,20.57
2019-01-23T17:33:07.256Z,22.03
2019-01-23T17:35:36.382Z,21.00
2019-01-23T17:38:05.778Z,21.83
2019-01-23T17:40:35.185Z,21.47
2019-01-23T17:43:04.381Z,21.87
2019-01-23T17:45:36.133Z,22.63
2019-01-23T17:48:07.432Z,23.50
2019-01-23T17:50:36.585Z,22.27
2019-01-23T17:53:06.053Z,21.73
2019-01-23T17:55:36.886Z,26.63
2019-01-23T17:58:08.322Z,26.47
2019-01-23T18:00:40.386Z,26.20
2019-01-23T18:03:09.643Z,30.83
2019-01-23T18:05:38.805Z,24.10
2019-01-23T18:08:08.405Z,26.30
2019-01-23T18:10:37.962Z,25.50
2019-01-23T18:13:07.176Z,26.10
2019-01-23T18:15:36.522Z,31.63
2019-01-23T18:18:06.461Z,34.03
2019-01-23T18:20:35.624Z,37.03
2019-01-23T18:23:04.837Z,39.47
2019-01-23T18:25:34.093Z,40.63
2019-01-23T18:28:03.562Z,39.87
2019-01-23T18:31:00.629Z,39.33
2019-01-23T18:33:38.093Z,34.93
2019-01-23T18:36:51.675Z,35.07
2019-01-23T18:39:59.981Z,35.90
2019-01-23T18:43:16.097Z,33.40
2019-01-23T18:46:41.465Z,36.07
2019-01-23T18:49:50.808Z,30.43
2019-01-23T18:52:20.011Z,30.70
2019-01-23T18:54:49.274Z,30.60
2019-01-23T18:57:21.866Z,31.00
2019-01-23T18:59:51.013Z,27.97
2019-01-23T19:02:20.292Z,24.80
2019-01-23T19:04:49.774Z,23.97
2019-01-23T19:07:19.159Z,20.23
2019-01-23T19:09:48.373Z,21.10
2019-01-23T19:12:17.811Z,21.13
2019-01-23T19:14:47.262Z,23.20
2019-01-23T19:17:16.636Z,23.73
2019-01-23T19:19:45.761Z,23.00
2019-01-23T19:22:15.067Z,22.50
2019-01-23T19:24:44.259Z,22.53
2019-01-23T19:27:13.455Z,21.23
2019-01-23T19:29:42.871Z,20.50
2019-01-23T19:34:42.800Z,23.53
2019-01-23T19:37:12.215Z,23.10
2019-01-23T19:39:41.395Z,22.37
2019-01-23T19:42:10.637Z,23.13
2019-01-23T19:44:39.885Z,25.30
2019-01-23T19:47:09.303Z,26.67
2019-01-23T19:49:38.667Z,22.97
2019-01-23T19:52:07.842Z,21.80
2019-01-23T19:54:37.037Z,21.27
2019-01-23T19:57:06.217Z,20.57
2019-01-23T19:59:35.390Z,21.70
2019-01-23T20:02:04.625Z,21.50
2019-01-23T20:04:33.902Z,20.87
2019-01-23T20:07:03.036Z,19.50
2019-01-23T20:09:32.173Z,22.27
2019-01-23T20:12:01.532Z,23.67
2019-01-23T20:14:30.657Z,24.47
2019-01-23T20:16:59.807Z,25.07
2019-01-23T20:19:29.456Z,23.97
2019-01-23T20:21:58.672Z,28.50
2019-01-23T20:24:28.137Z,35.67
2019-01-23T20:26:57.373Z,31.43
2019-01-23T20:29:26.655Z,34.93
2019-01-23T20:31:56.129Z,28.90
2019-01-23T20:34:25.302Z,32.23
2019-01-23T20:36:54.416Z,31.10
2019-01-23T20:39:23.553Z,28.77
2019-01-23T20:41:52.764Z,25.23
2019-01-23T20:44:21.881Z,26.07
2019-01-23T20:46:51.009Z,26.93
2019-01-23T20:49:20.173Z,28.17
2019-01-23T20:51:49.326Z,27.93
2019-01-23T20:54:18.436Z,29.07
2019-01-23T20:56:47.657Z,28.33
2019-01-23T20:59:16.801Z,26.13
2019-01-23T21:01:46.108Z,28.50
2019-01-23T21:04:15.275Z,28.60
2019-01-23T21:06:44.477Z,27.80
2019-01-23T21:09:13.605Z,27.70
2019-01-23T21:11:42.913Z,27.63
2019-01-23T21:14:12.049Z,28.47
2019-01-23T21:16:41.214Z,30.77
2019-01-23T21:19:10.401Z,30.77
2019-01-23T21:21:39.580Z,32.37
2019-01-23T21:24:08.685Z,32.70
2019-01-23T21:26:37.863Z,32.70
2019-01-23T21:29:07.174Z,28.53
2019-01-23T21:31:36.306Z,31.93
2019-01-23T21:34:05.761Z,31.70
2019-01-23T21:36:35.001Z,31.20
2019-01-23T21:39:06.454Z,30.87
2019-01-23T21:41:35.567Z,30.53
2019-01-23T21:44:04.781Z,32.33
2019-01-23T21:46:33.917Z,29.47
2019-01-23T21:49:03.153Z,32.30
2019-01-23T21:51:32.275Z,32.03
2019-01-23T21:54:01.473Z,32.67
2019-01-23T21:56:30.582Z,30.83
2019-01-23T21:58:59.719Z,32.67
2019-01-23T22:01:29.045Z,33.60
2019-01-23T22:03:58.290Z,35.13
2019-01-23T22:06:27.414Z,34.70
2019-01-23T22:08:56.562Z,32.47
2019-01-23T22:11:25.749Z,27.43
2019-01-23T22:13:54.972Z,29.23
2019-01-23T22:16:24.096Z,25.57
2019-01-23T22:18:53.209Z,26.63
2019-01-23T22:21:22.441Z,26.43
2019-01-23T22:23:51.600Z,26.93
2019-01-23T22:26:20.801Z,28.47
2019-01-23T22:28:49.989Z,28.13
2019-01-23T22:31:19.132Z,28.47
2019-01-23T22:33:48.285Z,29.00
2019-01-23T22:36:17.445Z,28.17
2019-01-23T22:38:46.602Z,25.20
2019-01-23T22:41:15.767Z,26.37
2019-01-23T22:43:44.883Z,24.87
2019-01-23T22:46:14.181Z,24.97
2019-01-23T22:48:43.325Z,26.57
2019-01-23T22:51:12.437Z,25.33
2019-01-23T22:53:41.566Z,26.77
2019-01-23T22:56:10.780Z,27.67
2019-01-23T22:58:40.082Z,28.53
2019-01-23T23:01:23.397Z,27.13
2019-01-23T23:03:52.674Z,27.97
2019-01-23T23:06:22.444Z,27.73
2019-01-23T23:08:51.705Z,26.67
2019-01-23T23:11:20.873Z,26.53
2019-01-23T23:13:50.024Z,23.53
2019-01-23T23:16:19.167Z,24.60
2019-01-23T23:18:48.336Z,24.53
2019-01-23T23:21:17.451Z,23.93
2019-01-23T23:23:46.569Z,24.77
2019-01-23T23:26:15.737Z,23.50
2019-01-23T23:28:44.888Z,24.07
2019-01-23T23:31:14.040Z,21.37
2019-01-23T23:33:43.166Z,23.20
2019-01-23T23:36:12.321Z,22.10
2019-01-23T23:38:41.538Z,21.00
2019-01-23T23:41:10.667Z,22.00
2019-01-23T23:43:39.802Z,21.70
2019-01-23T23:46:08.946Z,20.30
2019-01-23T23:48:38.092Z,19.77
2019-01-23T23:51:07.241Z,20.60
2019-01-23T23:53:36.413Z,18.83
2019-01-23T23:56:05.900Z,19.63
2019-01-23T23:58:35.069Z,19.40
